createdAt,value
2019-05-18T00:01:32.997Z,100984.72
2019-05-18T00:04:00.638Z,100988.27
2019-05-18T00:06:29.247Z,100990.92
2019-05-18T00:08:57.006Z,100979.55
2019-05-18T00:11:24.198Z,100982.15
2019-05-18T00:13:53.589Z,100968.20
2019-05-18T00:16:20.957Z,100981.30
2019-05-18T00:18:49.058Z,100984.86
2019-05-18T00:21:17.186Z,100988.80
2019-05-18T00:23:46.507Z,100968.70
2019-05-18T00:26:14.070Z,100994.19
2019-05-18T00:28:42.675Z,100994.19
2019-05-18T00:31:10.083Z,100974.99
2019-05-18T00:33:37.869Z,100974.99
2019-05-18T00:36:05.366Z,100991.61
2019-05-18T00:38:33.325Z,100995.64
2019-05-18T00:41:01.055Z,100995.64
2019-05-18T00:43:28.515Z,100967.16
2019-05-18T00:45:55.938Z,100967.16
2019-05-18T00:48:23.405Z,100983.34
2019-05-18T00:50:50.909Z,100988.58
2019-05-18T00:53:18.570Z,100988.58
2019-05-18T00:55:45.971Z,100994.28
2019-05-18T00:58:16.352Z,100996.55
2019-05-18T01:00:44.148Z,100992.69
2019-05-18T01:03:11.870Z,100992.69
2019-05-18T01:05:39.539Z,100990.89
2019-05-18T01:08:07.091Z,100983.37
2019-05-18T01:10:34.625Z,100982.56
2019-05-18T01:13:02.574Z,100984.77
2019-05-18T01:15:30.102Z,100984.25
2019-05-18T01:18:01.450Z,100984.25
2019-05-18T01:20:27.242Z,100971.23
2019-05-18T01:22:54.892Z,100971.23
2019-05-18T01:25:22.651Z,100988.71
2019-05-18T01:27:50.394Z,100988.71
2019-05-18T01:30:18.129Z,100982.66
2019-05-18T01:32:45.886Z,100960.69
2019-05-18T01:35:13.889Z,100972.84
2019-05-18T01:37:41.242Z,100972.84
2019-05-18T01:40:09.276Z,100947.74
2019-05-18T01:42:36.995Z,100958.67
2019-05-18T01:45:16.252Z,100944.95
2019-05-18T01:47:35.657Z,100944.95
2019-05-18T01:50:03.524Z,100944.97
2019-05-18T01:52:31.067Z,100937.03
2019-05-18T01:54:58.621Z,100937.46
2019-05-18T01:57:25.978Z,100933.02
2019-05-18T01:59:53.174Z,100930.00
2019-05-18T02:02:21.000Z,100923.42
2019-05-18T02:04:48.202Z,100923.42
2019-05-18T02:07:15.580Z,100911.23
2019-05-18T02:09:43.022Z,100923.38
2019-05-18T02:12:10.353Z,100923.38
2019-05-18T02:14:37.654Z,100918.55
2019-05-18T02:17:06.101Z,100916.39
2019-05-18T02:19:33.309Z,100931.34
2019-05-18T02:22:01.111Z,100917.38
2019-05-18T02:24:28.444Z,100917.38
2019-05-18T02:26:55.944Z,100911.65
2019-05-18T02:29:23.298Z,100929.25
2019-05-18T02:31:51.687Z,100922.19
2019-05-18T02:34:19.301Z,100931.38
2019-05-18T02:36:46.745Z,100943.30
2019-05-18T02:39:14.294Z,100939.78
2019-05-18T02:41:41.802Z,100942.00
2019-05-18T02:44:09.748Z,100929.64
2019-05-18T02:46:37.439Z,100938.94
2019-05-18T02:49:04.709Z,100935.42
2019-05-18T02:51:32.412Z,100935.42
2019-05-18T02:54:00.465Z,100940.34
2019-05-18T02:56:28.877Z,100934.30
2019-05-18T02:58:56.249Z,100929.45
2019-05-18T03:01:23.482Z,100923.66
2019-05-18T03:03:52.353Z,100920.14
2019-05-18T03:06:20.211Z,100924.53
2019-05-18T03:08:48.185Z,100938.05
2019-05-18T03:11:15.516Z,100934.09
2019-05-18T03:13:43.013Z,100928.78
2019-05-18T03:16:10.359Z,100927.00
2019-05-18T03:18:38.141Z,100927.50
2019-05-18T03:21:05.951Z,100928.78
2019-05-18T03:23:33.452Z,100912.97
2019-05-18T03:26:00.601Z,100921.66
2019-05-18T03:28:28.405Z,100922.08
2019-05-18T03:30:55.931Z,100931.34
2019-05-18T03:33:29.119Z,100937.83
2019-05-18T03:35:52.840Z,100938.34
2019-05-18T03:38:20.457Z,100938.34
2019-05-18T03:40:48.014Z,100933.02
2019-05-18T03:43:15.556Z,100946.66
2019-05-18T03:45:43.009Z,100935.73
2019-05-18T03:48:10.517Z,100927.34
2019-05-18T03:50:37.920Z,100952.23
2019-05-18T03:53:05.183Z,100959.69
2019-05-18T03:55:32.763Z,100956.56
2019-05-18T03:58:00.330Z,100942.89
2019-05-18T04:00:27.764Z,100939.73
2019-05-18T04:02:55.396Z,100939.73
2019-05-18T04:05:23.327Z,100942.36
2019-05-18T04:07:50.750Z,100949.81
2019-05-18T04:10:25.994Z,100946.73
2019-05-18T04:12:53.681Z,100944.09
2019-05-18T04:15:21.072Z,100939.72
2019-05-18T04:17:48.383Z,100942.31
2019-05-18T04:20:16.206Z,100945.39
2019-05-18T04:22:43.809Z,100942.77
2019-05-18T04:25:11.363Z,100941.02
2019-05-18T04:27:39.347Z,100933.55
2019-05-18T04:30:07.199Z,100929.53
2019-05-18T04:32:34.408Z,100926.92
2019-05-18T04:35:01.931Z,100924.67
2019-05-18T04:37:29.557Z,100918.59
2019-05-18T04:39:56.667Z,100927.44
2019-05-18T04:42:23.944Z,100920.83
2019-05-18T04:44:51.252Z,100910.58
2019-05-18T04:47:18.563Z,100917.52
2019-05-18T04:50:02.123Z,100910.84
2019-05-18T04:52:14.964Z,100913.61
2019-05-18T04:54:42.298Z,100914.80
2019-05-18T04:57:09.654Z,100912.52
2019-05-18T04:59:36.961Z,100909.84
2019-05-18T05:02:04.173Z,100907.61
2019-05-18T05:04:31.816Z,100911.06
2019-05-18T05:07:00.055Z,100907.63
2019-05-18T05:09:27.558Z,100906.62
2019-05-18T05:11:55.036Z,100900.64
2019-05-18T05:14:22.366Z,100899.70
2019-05-18T05:16:51.670Z,100901.92
2019-05-18T05:19:19.223Z,100902.31
2019-05-18T05:21:46.663Z,100896.86
2019-05-18T05:24:14.044Z,100898.19
2019-05-18T05:26:42.217Z,100894.81
2019-05-18T05:29:09.472Z,100891.08
2019-05-18T05:31:36.934Z,100900.17
2019-05-18T05:34:04.561Z,100898.68
2019-05-18T05:36:32.575Z,100897.84
2019-05-18T05:39:00.230Z,100899.33
2019-05-18T05:41:27.474Z,100890.37
2019-05-18T05:43:55.318Z,100891.80
2019-05-18T05:46:22.739Z,100887.81
2019-05-18T05:48:49.854Z,100893.68
2019-05-18T05:51:17.241Z,100893.45
2019-05-18T05:53:44.605Z,100895.00
2019-05-18T05:56:13.041Z,100890.99
2019-05-18T05:58:40.725Z,100890.80
2019-05-18T06:01:08.028Z,100894.52
2019-05-18T06:03:35.623Z,100888.79
2019-05-18T06:06:03.228Z,100883.05
2019-05-18T06:08:30.338Z,100875.77
2019-05-18T06:10:57.876Z,100878.10
2019-05-18T06:13:25.292Z,100875.41
2019-05-18T06:15:52.728Z,100879.62
2019-05-18T06:18:20.129Z,100875.17
2019-05-18T06:20:51.521Z,100870.84
2019-05-18T06:23:17.509Z,100865.20
2019-05-18T06:25:44.783Z,100870.98
2019-05-18T06:28:12.150Z,100866.80
2019-05-18T06:30:39.717Z,100864.98
2019-05-18T06:33:07.116Z,100868.22
2019-05-18T06:35:34.536Z,100871.39
2019-05-18T06:38:01.626Z,100875.51
2019-05-18T06:40:28.851Z,100873.25
2019-05-18T06:42:56.931Z,100872.24
2019-05-18T06:45:24.267Z,100869.06
2019-05-18T06:47:51.812Z,100868.74
2019-05-18T06:50:26.602Z,100872.68
2019-05-18T06:52:54.316Z,100872.50
2019-05-18T06:55:22.048Z,100870.20
2019-05-18T06:57:50.588Z,100871.05
2019-05-18T07:00:18.635Z,100874.75
2019-05-18T07:02:46.047Z,100867.02
2019-05-18T07:05:13.364Z,100871.55
2019-05-18T07:07:41.488Z,100865.25
2019-05-18T07:10:09.005Z,100866.12
2019-05-18T07:12:36.256Z,100863.70
2019-05-18T07:15:05.254Z,100860.88
2019-05-18T07:17:34.700Z,100857.97
2019-05-18T07:20:03.961Z,100854.73
2019-05-18T07:22:31.394Z,100858.30
2019-05-18T07:24:58.758Z,100862.86
2019-05-18T07:27:26.129Z,100868.66
2019-05-18T07:29:53.541Z,100860.79
2019-05-18T07:32:20.788Z,100868.48
2019-05-18T07:34:48.278Z,100862.88
2019-05-18T07:37:15.340Z,100867.73
2019-05-18T07:39:42.524Z,100865.97
2019-05-18T07:42:09.789Z,100863.66
2019-05-18T07:44:37.267Z,100867.11
2019-05-18T07:47:04.885Z,100866.48
2019-05-18T07:49:32.194Z,100870.45
2019-05-18T07:51:59.360Z,100862.70
2019-05-18T07:54:26.491Z,100863.87
2019-05-18T07:56:53.726Z,100864.76
2019-05-18T07:59:21.130Z,100861.28
2019-05-18T08:01:48.476Z,100855.72
2019-05-18T08:04:15.878Z,100857.38
2019-05-18T08:06:43.121Z,100853.14
2019-05-18T08:09:10.728Z,100858.39
2019-05-18T08:11:38.059Z,100868.63
2019-05-18T08:14:05.759Z,100877.14
2019-05-18T08:16:32.989Z,100878.47
2019-05-18T08:19:00.516Z,100875.38
2019-05-18T08:21:28.930Z,100874.44
2019-05-18T08:23:56.491Z,100875.66
2019-05-18T08:26:24.075Z,100874.56
2019-05-18T08:28:51.501Z,100863.91
2019-05-18T08:31:19.198Z,100860.20
2019-05-18T08:33:46.566Z,100856.40
2019-05-18T08:36:13.662Z,100864.70
2019-05-18T08:38:41.250Z,100863.87
2019-05-18T08:41:08.697Z,100860.28
2019-05-18T08:43:35.952Z,100855.70
2019-05-18T08:46:03.436Z,100857.93
2019-05-18T08:48:30.631Z,100856.97
2019-05-18T08:50:58.015Z,100844.48
2019-05-18T08:53:25.677Z,100841.97
2019-05-18T08:55:52.936Z,100836.50
2019-05-18T08:58:20.169Z,100839.56
2019-05-18T09:00:47.615Z,100835.41
2019-05-18T09:03:15.477Z,100831.59
2019-05-18T09:05:43.041Z,100832.25
2019-05-18T09:08:10.873Z,100832.86
2019-05-18T09:10:38.259Z,100836.38
2019-05-18T09:13:05.914Z,100839.11
2019-05-18T09:15:33.251Z,100836.11
2019-05-18T09:18:00.779Z,100829.63
2019-05-18T09:20:28.373Z,100835.47
2019-05-18T09:22:55.894Z,100819.97
2019-05-18T09:25:22.970Z,100822.50
2019-05-18T09:27:50.379Z,100817.23
2019-05-18T09:30:17.891Z,100814.23
2019-05-18T09:32:45.554Z,100810.02
2019-05-18T09:35:13.295Z,100811.67
2019-05-18T09:37:40.940Z,100819.75
2019-05-18T09:40:09.170Z,100806.57
2019-05-18T09:42:36.710Z,100792.97
2019-05-18T09:45:05.053Z,100793.09
2019-05-18T09:47:33.010Z,100787.44
2019-05-18T09:50:00.655Z,100781.95
2019-05-18T09:52:44.171Z,100782.75
2019-05-18T09:54:57.824Z,100782.09
2019-05-18T09:57:25.358Z,100775.17
2019-05-18T09:59:52.664Z,100778.36
2019-05-18T10:02:21.151Z,100781.44
2019-05-18T10:04:48.763Z,100778.64
2019-05-18T10:07:16.237Z,100768.02
2019-05-18T10:09:43.842Z,100766.63
2019-05-18T10:12:11.437Z,100764.26
2019-05-18T10:14:39.247Z,100764.57
2019-05-18T10:17:06.890Z,100754.48
2019-05-18T10:19:34.329Z,100758.06
2019-05-18T10:22:01.710Z,100765.05
2019-05-18T10:24:29.037Z,100762.04
2019-05-18T10:26:56.434Z,100766.62
2019-05-18T10:29:23.855Z,100762.75
2019-05-18T10:31:52.624Z,100762.89
2019-05-18T10:34:21.717Z,100758.70
2019-05-18T10:36:49.096Z,100764.77
2019-05-18T10:39:16.707Z,100762.27
2019-05-18T10:41:44.060Z,100749.23
2019-05-18T10:44:11.562Z,100746.45
2019-05-18T10:46:38.990Z,100746.56
2019-05-18T10:49:06.557Z,100736.67
2019-05-18T10:51:35.304Z,100739.22
2019-05-18T10:54:03.068Z,100731.87
2019-05-18T10:56:32.072Z,100734.70
2019-05-18T10:58:59.635Z,100726.89
2019-05-18T11:01:27.189Z,100728.21
2019-05-18T11:03:54.818Z,100721.98
2019-05-18T11:06:22.211Z,100718.34
2019-05-18T11:08:49.687Z,100714.53
2019-05-18T11:11:17.170Z,100720.84
2019-05-18T11:13:44.598Z,100717.69
2019-05-18T11:16:11.988Z,100712.73
2019-05-18T11:18:39.478Z,100713.05
2019-05-18T11:21:07.285Z,100706.88
2019-05-18T11:23:43.420Z,100712.66
2019-05-18T11:26:04.154Z,100715.61
2019-05-18T11:28:32.133Z,100711.64
2019-05-18T11:31:00.039Z,100701.90
2019-05-18T11:33:27.648Z,100704.87
2019-05-18T11:35:55.435Z,100691.63
2019-05-18T11:38:23.240Z,100695.50
2019-05-18T11:40:52.280Z,100695.50
2019-05-18T11:43:19.933Z,100687.99
2019-05-18T11:45:47.539Z,100700.91
2019-05-18T11:48:15.168Z,100698.80
2019-05-18T11:50:42.611Z,100699.15
2019-05-18T11:53:11.633Z,100701.20
2019-05-18T11:55:39.483Z,100696.39
2019-05-18T11:58:06.902Z,100696.75
2019-05-18T12:00:34.734Z,100700.70
2019-05-18T12:03:02.564Z,100703.83
2019-05-18T12:05:30.159Z,100696.80
2019-05-18T12:07:57.822Z,100683.84
2019-05-18T12:10:25.516Z,100689.34
2019-05-18T12:12:53.381Z,100684.13
2019-05-18T12:15:21.145Z,100696.78
2019-05-18T12:17:49.010Z,100695.57
2019-05-18T12:20:16.705Z,100708.05
2019-05-18T12:22:44.307Z,100714.20
2019-05-18T12:25:12.583Z,100702.38
2019-05-18T12:27:40.214Z,100704.25
2019-05-18T12:30:08.747Z,100694.91
2019-05-18T12:32:36.437Z,100686.16
2019-05-18T12:35:04.509Z,100684.86
2019-05-18T12:37:32.211Z,100679.02
2019-05-18T12:39:59.501Z,100676.41
2019-05-18T12:42:27.276Z,100673.28
2019-05-18T12:44:54.684Z,100660.57
2019-05-18T12:47:22.146Z,100662.46
2019-05-18T12:49:49.727Z,100667.23
2019-05-18T12:52:17.471Z,100667.52
2019-05-18T12:54:46.948Z,100671.91
2019-05-18T12:57:14.158Z,100663.05
2019-05-18T12:59:41.638Z,100660.32
2019-05-18T13:02:09.122Z,100651.98
2019-05-18T13:04:36.701Z,100649.57
2019-05-18T13:07:04.226Z,100636.03
2019-05-18T13:09:31.693Z,100646.87
2019-05-18T13:11:59.164Z,100649.30
2019-05-18T13:14:26.585Z,100643.14
2019-05-18T13:16:54.204Z,100638.09
2019-05-18T13:19:21.774Z,100637.27
2019-05-18T13:21:49.345Z,100628.25
2019-05-18T13:24:16.905Z,100626.97
2019-05-18T13:26:44.249Z,100623.94
2019-05-18T13:29:11.376Z,100628.07
2019-05-18T13:31:38.887Z,100616.72
2019-05-18T13:34:07.087Z,100621.33
2019-05-18T13:36:34.569Z,100616.77
2019-05-18T13:39:02.237Z,100615.34
2019-05-18T13:41:31.328Z,100618.23
2019-05-18T13:43:58.425Z,100619.17
2019-05-18T13:46:25.822Z,100616.54
2019-05-18T13:48:54.218Z,100610.09
2019-05-18T13:51:21.689Z,100603.13
2019-05-18T13:53:48.999Z,100602.15
2019-05-18T13:56:16.690Z,100611.17
2019-05-18T13:58:44.142Z,100608.69
2019-05-18T14:01:11.904Z,100611.41
2019-05-18T14:03:39.225Z,100613.64
2019-05-18T14:06:06.496Z,100615.09
2019-05-18T14:08:33.999Z,100604.41
2019-05-18T14:11:01.257Z,100602.72
2019-05-18T14:13:29.761Z,100596.37
2019-05-18T14:15:56.872Z,100597.30
2019-05-18T14:18:24.189Z,100598.73
2019-05-18T14:20:51.592Z,100600.84
2019-05-18T14:23:18.839Z,100601.76
2019-05-18T14:25:46.597Z,100598.43
2019-05-18T14:28:13.972Z,100602.09
2019-05-18T14:30:41.533Z,100588.66
2019-05-18T14:33:10.576Z,100594.27
2019-05-18T14:35:38.335Z,100604.21
2019-05-18T14:38:07.355Z,100608.23
2019-05-18T14:40:36.770Z,100607.61
2019-05-18T14:43:04.653Z,100599.87
2019-05-18T14:45:32.103Z,100603.18
2019-05-18T14:47:59.614Z,100600.13
2019-05-18T14:50:27.098Z,100601.16
2019-05-18T14:52:55.942Z,100603.71
2019-05-18T14:55:33.251Z,100602.81
2019-05-18T14:57:52.480Z,100610.61
2019-05-18T15:00:20.095Z,100613.91
2019-05-18T15:02:47.949Z,100607.95
2019-05-18T15:05:15.628Z,100594.08
2019-05-18T15:07:43.175Z,100597.91
2019-05-18T15:10:11.284Z,100592.64
2019-05-18T15:12:39.027Z,100601.16
2019-05-18T15:15:07.438Z,100601.69
2019-05-18T15:17:35.021Z,100599.41
2019-05-18T15:20:04.166Z,100599.44
2019-05-18T15:22:32.795Z,100600.75
2019-05-18T15:25:00.577Z,100610.30
2019-05-18T15:27:28.496Z,100601.88
2019-05-18T15:29:56.075Z,100605.52
2019-05-18T15:32:23.579Z,100600.78
2019-05-18T15:34:51.212Z,100605.70
2019-05-18T15:37:18.940Z,100604.20
2019-05-18T15:39:46.459Z,100596.99
2019-05-18T15:42:13.871Z,100601.39
2019-05-18T15:44:41.646Z,100603.72
2019-05-18T15:47:09.015Z,100595.67
2019-05-18T15:49:36.942Z,100596.91
2019-05-18T15:52:04.472Z,100592.79
2019-05-18T15:54:36.102Z,100592.14
2019-05-18T15:57:02.878Z,100596.94
2019-05-18T15:59:30.289Z,100589.62
2019-05-18T16:01:57.639Z,100586.53
2019-05-18T16:04:25.403Z,100586.42
2019-05-18T16:06:53.054Z,100588.98
2019-05-18T16:09:20.707Z,100584.62
2019-05-18T16:11:48.198Z,100589.98
2019-05-18T16:14:15.780Z,100586.50
2019-05-18T16:16:43.589Z,100590.11
2019-05-18T16:19:11.237Z,100590.52
2019-05-18T16:21:38.793Z,100584.93
2019-05-18T16:24:06.333Z,100590.11
2019-05-18T16:26:33.658Z,100592.08
2019-05-18T16:29:02.516Z,100583.63
2019-05-18T16:31:31.454Z,100583.81
2019-05-18T16:33:59.290Z,100584.52
2019-05-18T16:36:28.282Z,100582.65
2019-05-18T16:38:56.016Z,100580.77
2019-05-18T16:41:23.396Z,100575.97
2019-05-18T16:43:51.111Z,100575.87
2019-05-18T16:46:19.050Z,100574.34
2019-05-18T16:48:46.471Z,100577.38
2019-05-18T16:51:13.989Z,100573.89
2019-05-18T16:53:42.153Z,100572.89
2019-05-18T16:56:09.680Z,100576.50
2019-05-18T16:58:37.232Z,100576.91
2019-05-18T17:01:04.921Z,100570.30
2019-05-18T17:03:32.970Z,100573.10
2019-05-18T17:06:00.759Z,100574.31
2019-05-18T17:08:29.329Z,100578.84
2019-05-18T17:10:56.742Z,100577.97
2019-05-18T17:13:24.322Z,100580.42
2019-05-18T17:15:52.168Z,100581.86
2019-05-18T17:18:19.481Z,100589.03
2019-05-18T17:20:46.775Z,100595.91
2019-05-18T17:23:14.121Z,100601.17
2019-05-18T17:25:41.832Z,100609.52
2019-05-18T17:28:09.249Z,100611.41
2019-05-18T17:30:36.412Z,100617.87
2019-05-18T17:33:04.522Z,100615.19
2019-05-18T17:35:31.955Z,100615.83
2019-05-18T17:37:59.389Z,100614.41
2019-05-18T17:40:28.326Z,100628.75
2019-05-18T17:42:55.889Z,100633.15
2019-05-18T17:45:23.509Z,100637.19
2019-05-18T17:47:51.460Z,100634.59
2019-05-18T17:50:19.099Z,100626.05
2019-05-18T17:52:46.337Z,100635.17
2019-05-18T17:55:16.315Z,100633.27
2019-05-18T17:57:43.592Z,100642.86
2019-05-18T18:00:12.111Z,100638.59
2019-05-18T18:02:39.933Z,100641.58
2019-05-18T18:05:08.481Z,100642.97
2019-05-18T18:07:37.118Z,100644.14
2019-05-18T18:10:05.614Z,100642.64
2019-05-18T18:12:33.379Z,100646.61
2019-05-18T18:15:01.255Z,100641.47
2019-05-18T18:17:29.996Z,100635.62
2019-05-18T18:19:57.883Z,100627.69
2019-05-18T18:22:25.296Z,100629.44
2019-05-18T18:24:52.727Z,100632.41
2019-05-18T18:27:25.177Z,100638.92
2019-05-18T18:29:49.307Z,100630.94
2019-05-18T18:32:17.086Z,100631.92
2019-05-18T18:34:44.510Z,100633.84
2019-05-18T18:37:12.350Z,100626.34
2019-05-18T18:39:39.920Z,100621.00
2019-05-18T18:42:07.905Z,100612.52
2019-05-18T18:44:35.192Z,100605.17
2019-05-18T18:47:02.924Z,100596.91
2019-05-18T18:49:30.513Z,100599.33
2019-05-18T18:51:58.541Z,100607.48
2019-05-18T18:54:26.176Z,100601.38
2019-05-18T18:56:53.948Z,100599.06
2019-05-18T18:59:21.755Z,100602.34
2019-05-18T19:01:49.364Z,100607.23
2019-05-18T19:04:17.084Z,100609.64
2019-05-18T19:06:44.811Z,100611.89
2019-05-18T19:09:12.166Z,100618.72
2019-05-18T19:11:39.770Z,100626.55
2019-05-18T19:14:07.587Z,100625.62
2019-05-18T19:16:35.890Z,100627.00
2019-05-18T19:19:03.487Z,100634.21
2019-05-18T19:21:31.305Z,100634.02
2019-05-18T19:24:01.495Z,100633.91
2019-05-18T19:26:29.381Z,100630.63
2019-05-18T19:28:58.484Z,100642.72
2019-05-18T19:31:25.970Z,100644.58
2019-05-18T19:33:53.644Z,100644.96
2019-05-18T19:36:21.198Z,100641.38
2019-05-18T19:38:49.071Z,100642.02
2019-05-18T19:41:16.592Z,100650.98
2019-05-18T19:43:44.053Z,100646.98
2019-05-18T19:46:11.977Z,100646.55
2019-05-18T19:48:39.646Z,100641.83
2019-05-18T19:51:07.446Z,100640.56
2019-05-18T19:53:35.659Z,100636.56
2019-05-18T19:57:02.832Z,100628.09
2019-05-18T19:59:30.835Z,100635.33
2019-05-18T20:01:58.394Z,100630.20
2019-05-18T20:04:26.090Z,100634.97
2019-05-18T20:06:53.854Z,100634.97
2019-05-18T20:09:22.144Z,100637.27
2019-05-18T20:11:49.935Z,100645.79
2019-05-18T20:14:19.088Z,100646.70
2019-05-18T20:16:47.443Z,100643.20
2019-05-18T20:19:15.944Z,100641.44
2019-05-18T20:21:53.740Z,100639.34
2019-05-18T20:24:24.957Z,100644.45
2019-05-18T20:26:56.747Z,100649.16
2019-05-18T20:29:27.804Z,100641.36
2019-05-18T20:31:59.167Z,100646.40
2019-05-18T20:34:30.341Z,100646.02
2019-05-18T20:37:01.209Z,100644.55
2019-05-18T20:39:32.379Z,100644.63
2019-05-18T20:42:03.309Z,100644.73
2019-05-18T20:44:34.389Z,100643.53
2019-05-18T20:47:05.631Z,100645.70
2019-05-18T20:49:36.905Z,100642.88
2019-05-18T20:52:08.152Z,100638.23
2019-05-18T20:54:39.274Z,100633.63
2019-05-18T20:57:10.393Z,100634.16
2019-05-18T20:59:41.547Z,100631.30
2019-05-18T21:02:12.896Z,100632.63
2019-05-18T21:04:43.969Z,100628.77
2019-05-18T21:07:15.155Z,100623.17
2019-05-18T21:09:46.486Z,100631.14
2019-05-18T21:12:17.779Z,100625.16
2019-05-18T21:14:48.859Z,100625.16
2019-05-18T21:17:20.253Z,100629.93
2019-05-18T21:19:51.373Z,100632.97
2019-05-18T21:22:22.475Z,100636.89
2019-05-18T21:24:53.612Z,100639.19
2019-05-18T21:27:24.623Z,100643.25
2019-05-18T21:29:55.655Z,100645.55
2019-05-18T21:32:27.179Z,100649.38
2019-05-18T21:34:59.248Z,100647.54
2019-05-18T21:37:30.862Z,100644.88
2019-05-18T21:40:01.944Z,100639.20
2019-05-18T21:42:32.949Z,100643.73
2019-05-18T21:45:06.942Z,100644.85
2019-05-18T21:47:38.230Z,100650.00
2019-05-18T21:50:09.778Z,100645.48
2019-05-18T21:52:42.152Z,100648.99
2019-05-18T21:55:13.418Z,100658.84
2019-05-18T21:57:44.698Z,100657.06
2019-05-18T22:00:17.890Z,100651.38
2019-05-18T22:02:50.700Z,100654.40
2019-05-18T22:05:21.976Z,100654.56
2019-05-18T22:07:53.277Z,100662.02
2019-05-18T22:10:26.170Z,100653.47
2019-05-18T22:12:58.152Z,100658.34
2019-05-18T22:15:29.313Z,100660.78
2019-05-18T22:18:03.316Z,100654.25
2019-05-18T22:20:43.685Z,100649.02
2019-05-18T22:23:10.723Z,100652.31
2019-05-18T22:25:42.793Z,100649.02
2019-05-18T22:28:13.782Z,100645.97
2019-05-18T22:30:44.842Z,100646.78
2019-05-18T22:33:15.975Z,100645.15
2019-05-18T22:35:47.106Z,100651.43
2019-05-18T22:38:18.537Z,100648.36
2019-05-18T22:40:49.766Z,100651.53
2019-05-18T22:43:21.046Z,100643.75
2019-05-18T22:45:52.044Z,100637.36
2019-05-18T22:48:23.204Z,100631.05
2019-05-18T22:50:54.534Z,100634.06
2019-05-18T22:53:25.781Z,100628.25
2019-05-18T22:55:56.929Z,100622.80
2019-05-18T22:58:27.907Z,100624.41
2019-05-18T23:00:58.932Z,100627.16
2019-05-18T23:03:30.146Z,100622.27
2019-05-18T23:06:01.190Z,100616.01
2019-05-18T23:08:32.274Z,100619.17
2019-05-18T23:11:03.253Z,100613.47
2019-05-18T23:13:34.691Z,100605.12
2019-05-18T23:16:05.883Z,100599.05
2019-05-18T23:18:37.031Z,100593.81
2019-05-18T23:21:08.346Z,100589.30
2019-05-18T23:23:39.257Z,100591.98
2019-05-18T23:26:11.711Z,100590.73
2019-05-18T23:28:42.740Z,100587.88
2019-05-18T23:31:14.004Z,100585.42
2019-05-18T23:33:44.790Z,100588.25
2019-05-18T23:36:15.889Z,100593.56
2019-05-18T23:38:46.853Z,100603.89
2019-05-18T23:41:17.807Z,100604.52
2019-05-18T23:43:48.712Z,100603.39
2019-05-18T23:46:19.642Z,100603.76
2019-05-18T23:48:50.780Z,100601.50
2019-05-18T23:51:21.498Z,100591.81
2019-05-18T23:53:53.885Z,100596.30
2019-05-18T23:56:25.582Z,100598.22
2019-05-18T23:58:56.327Z,100591.81
